createdAt,value
2022-10-25T00:00:52.040Z,21.14
2022-10-25T00:03:40.742Z,21.18
2022-10-25T00:06:29.775Z,21.14
2022-10-25T00:09:18.799Z,21.11
2022-10-25T00:12:01.027Z,21.12
2022-10-25T00:14:49.646Z,21.08
2022-10-25T00:17:32.041Z,20.96
2022-10-25T00:20:21.775Z,21.05
2022-10-25T00:23:06.115Z,20.97
2022-10-25T00:25:54.798Z,20.85
2022-10-25T00:28:37.035Z,20.93
2022-10-25T00:31:25.800Z,20.92
2022-10-25T00:34:08.056Z,20.98
2022-10-25T00:36:56.640Z,20.85
2022-10-25T00:39:39.487Z,20.83
2022-10-25T00:42:40.124Z,20.76
2022-10-25T00:45:25.844Z,20.75
2022-10-25T00:48:21.083Z,20.64
2022-10-25T00:51:04.102Z,20.76
2022-10-25T00:53:52.630Z,20.79
2022-10-25T00:56:47.017Z,20.70
2022-10-25T00:59:35.646Z,20.68
2022-10-25T01:02:19.794Z,20.76
2022-10-25T01:05:08.648Z,20.81
2022-10-25T01:07:52.662Z,20.82
2022-10-25T01:10:41.648Z,20.86
2022-10-25T01:13:31.050Z,20.93
2022-10-25T01:16:19.641Z,20.90
2022-10-25T01:19:41.751Z,21.00
2022-10-25T01:22:30.164Z,20.99
2022-10-25T01:25:55.775Z,21.04
2022-10-25T01:28:52.725Z,21.10
2022-10-25T01:31:53.676Z,21.06
2022-10-25T01:34:58.064Z,21.06
2022-10-25T01:38:05.756Z,21.11
2022-10-25T01:41:05.198Z,21.11
2022-10-25T01:44:11.744Z,21.15
2022-10-25T01:47:03.718Z,21.22
2022-10-25T01:49:56.744Z,21.27
2022-10-25T01:52:46.111Z,21.31
2022-10-25T01:55:33.721Z,21.33
2022-10-25T01:58:40.766Z,21.44
2022-10-25T02:01:37.285Z,21.45
2022-10-25T02:04:37.815Z,21.48
2022-10-25T02:07:23.989Z,21.55
2022-10-25T02:10:18.904Z,21.64
2022-10-25T02:13:25.029Z,21.77
2022-10-25T02:16:31.747Z,21.88
2022-10-25T02:19:25.723Z,21.89
2022-10-25T02:22:12.455Z,22.06
2022-10-25T02:25:03.718Z,22.27
2022-10-25T02:27:53.660Z,22.41
2022-10-25T02:30:43.743Z,22.51
2022-10-25T02:33:32.733Z,22.67
2022-10-25T02:36:29.997Z,22.75
2022-10-25T02:39:18.728Z,22.83
2022-10-25T02:42:03.455Z,22.88
2022-10-25T02:44:52.619Z,22.99
2022-10-25T02:47:42.064Z,23.08
2022-10-25T02:50:23.921Z,23.18
2022-10-25T02:53:12.717Z,23.35
2022-10-25T02:56:13.734Z,23.54
2022-10-25T02:58:58.054Z,23.62
2022-10-25T03:01:46.801Z,23.90
2022-10-25T03:04:29.049Z,23.98
2022-10-25T03:07:17.724Z,24.09
2022-10-25T03:10:00.012Z,24.17
2022-10-25T03:12:49.096Z,24.38
2022-10-25T03:15:31.016Z,24.49
2022-10-25T03:18:20.723Z,24.78
2022-10-25T03:21:07.102Z,24.93
2022-10-25T03:23:55.716Z,25.09
2022-10-25T03:26:37.997Z,25.24
2022-10-25T03:29:26.715Z,25.37
2022-10-25T03:32:15.711Z,25.42
2022-10-25T03:34:57.925Z,25.41
2022-10-25T03:37:46.904Z,25.74
2022-10-25T03:40:35.731Z,25.94
2022-10-25T03:43:24.729Z,25.92
2022-10-25T03:46:07.226Z,26.00
2022-10-25T03:48:55.628Z,26.23
2022-10-25T03:51:44.703Z,26.59
2022-10-25T03:54:33.721Z,26.88
2022-10-25T03:57:16.073Z,27.19
2022-10-25T04:00:05.730Z,27.34
2022-10-25T04:02:58.052Z,27.57
2022-10-25T04:05:43.177Z,27.67
2022-10-25T04:08:31.005Z,27.87
2022-10-25T04:11:13.763Z,27.89
2022-10-25T04:13:55.940Z,28.43
2022-10-25T04:16:44.790Z,28.44
2022-10-25T04:19:26.943Z,28.86
2022-10-25T04:22:15.752Z,28.96
2022-10-25T04:24:57.947Z,29.37
2022-10-25T04:27:46.824Z,29.59
2022-10-25T04:30:38.028Z,29.79
2022-10-25T04:33:21.033Z,29.89
2022-10-25T04:36:09.726Z,29.77
2022-10-25T04:38:52.187Z,30.35
2022-10-25T04:41:40.717Z,30.47
2022-10-25T04:44:35.566Z,30.69
2022-10-25T04:47:24.708Z,30.92
2022-10-25T04:50:06.990Z,30.83
2022-10-25T04:52:55.723Z,31.20
2022-10-25T04:55:38.014Z,31.20
2022-10-25T04:58:28.916Z,31.02
2022-10-25T05:01:17.088Z,31.05
2022-10-25T05:04:05.806Z,30.82
2022-10-25T05:06:54.719Z,31.12
2022-10-25T05:09:46.562Z,31.26
2022-10-25T05:12:31.009Z,30.89
2022-10-25T05:15:19.721Z,30.78
2022-10-25T05:18:06.203Z,30.64
2022-10-25T05:21:05.632Z,30.55
2022-10-25T05:23:49.147Z,30.67
2022-10-25T05:26:39.721Z,30.84
2022-10-25T05:29:28.716Z,30.75
2022-10-25T05:32:16.995Z,31.10
2022-10-25T05:34:58.632Z,31.12
2022-10-25T05:37:47.269Z,31.06
2022-10-25T05:40:28.720Z,31.66
2022-10-25T05:43:23.631Z,31.20
2022-10-25T05:46:09.960Z,31.02
2022-10-25T05:48:58.626Z,31.23
2022-10-25T05:51:41.173Z,30.95
2022-10-25T05:54:31.705Z,31.36
2022-10-25T05:57:21.542Z,31.22
2022-10-25T06:00:03.630Z,31.39
2022-10-25T06:02:52.629Z,31.53
2022-10-25T06:05:35.125Z,31.58
2022-10-25T06:08:23.695Z,31.66
2022-10-25T06:11:11.007Z,31.52
2022-10-25T06:13:59.711Z,31.63
2022-10-25T06:16:42.208Z,31.41
2022-10-25T06:19:30.816Z,31.92
2022-10-25T06:22:13.026Z,32.06
2022-10-25T06:25:01.657Z,31.86
2022-10-25T06:27:50.776Z,31.58
2022-10-25T06:30:34.435Z,31.63
2022-10-25T06:33:27.128Z,31.70
2022-10-25T06:36:15.875Z,32.01
2022-10-25T06:39:07.072Z,31.89
2022-10-25T06:41:48.895Z,31.91
2022-10-25T06:44:37.683Z,32.18
2022-10-25T06:47:19.911Z,31.79
2022-10-25T06:53:02.709Z,32.36
2022-10-25T06:55:53.711Z,31.85
2022-10-25T06:58:37.629Z,32.19
2022-10-25T07:01:29.837Z,32.03
2022-10-25T07:04:12.091Z,32.35
2022-10-25T07:07:00.717Z,32.41
2022-10-25T07:09:50.018Z,32.11
2022-10-25T07:12:32.702Z,32.26
2022-10-25T07:15:21.746Z,32.16
2022-10-25T07:18:04.006Z,32.47
2022-10-25T07:20:55.695Z,32.28
2022-10-25T07:23:43.376Z,32.02
2022-10-25T07:26:41.599Z,32.03
2022-10-25T07:29:30.714Z,32.29
2022-10-25T07:32:13.359Z,32.42
2022-10-25T07:35:02.706Z,32.67
2022-10-25T07:37:45.100Z,32.41
2022-10-25T07:40:34.696Z,32.45
2022-10-25T07:43:29.574Z,32.48
2022-10-25T07:46:18.698Z,32.13
2022-10-25T07:49:07.637Z,32.26
2022-10-25T07:51:56.706Z,32.03
2022-10-25T07:54:39.066Z,31.76
2022-10-25T07:57:27.713Z,31.99
2022-10-25T08:00:10.028Z,31.94
2022-10-25T08:02:58.653Z,32.01
2022-10-25T08:05:47.700Z,31.94
2022-10-25T08:08:37.715Z,32.08
2022-10-25T08:11:20.039Z,32.12
2022-10-25T08:14:08.837Z,32.31
2022-10-25T08:16:51.031Z,32.22
2022-10-25T08:19:40.077Z,32.29
2022-10-25T08:22:21.993Z,32.52
2022-10-25T08:25:12.744Z,32.52
2022-10-25T08:27:55.127Z,31.96
2022-10-25T08:30:43.705Z,32.18
2022-10-25T08:33:32.725Z,32.15
2022-10-25T08:36:21.707Z,31.97
2022-10-25T08:39:10.623Z,32.36
2022-10-25T08:41:55.224Z,31.96
2022-10-25T08:44:43.758Z,31.90
2022-10-25T08:47:49.400Z,32.27
2022-10-25T08:50:42.777Z,32.21
2022-10-25T08:53:29.797Z,32.06
2022-10-25T08:56:21.697Z,32.05
2022-10-25T08:59:12.715Z,32.07
2022-10-25T09:02:10.805Z,32.12
2022-10-25T09:04:59.989Z,31.99
2022-10-25T09:08:12.720Z,32.37
2022-10-25T09:11:40.723Z,32.11
2022-10-25T09:15:11.797Z,32.41
2022-10-25T09:18:03.214Z,31.95
2022-10-25T09:20:53.696Z,31.67
2022-10-25T09:23:36.019Z,31.72
2022-10-25T09:26:53.705Z,31.76
2022-10-25T09:29:41.332Z,31.75
2022-10-25T09:33:01.737Z,31.84
2022-10-25T09:35:56.148Z,31.83
2022-10-25T09:38:56.741Z,31.83
2022-10-25T09:41:55.989Z,31.91
2022-10-25T09:45:12.714Z,31.86
2022-10-25T09:48:06.063Z,31.56
2022-10-25T09:51:20.709Z,31.64
2022-10-25T09:54:13.198Z,31.60
2022-10-25T09:57:01.615Z,31.80
2022-10-25T09:59:55.622Z,31.88
2022-10-25T10:02:48.324Z,31.50
2022-10-25T10:05:38.715Z,31.50
2022-10-25T10:08:27.707Z,31.74
2022-10-25T10:11:24.164Z,31.74
2022-10-25T10:14:11.705Z,31.71
2022-10-25T10:17:02.636Z,31.68
2022-10-25T10:19:52.509Z,31.53
2022-10-25T10:23:03.853Z,31.55
2022-10-25T10:25:53.634Z,31.54
2022-10-25T10:28:37.264Z,31.31
2022-10-25T10:31:26.721Z,31.15
2022-10-25T10:34:50.698Z,30.95
2022-10-25T10:37:35.380Z,31.23
2022-10-25T10:40:24.703Z,31.12
2022-10-25T10:43:13.633Z,31.13
2022-10-25T10:46:17.011Z,31.09
2022-10-25T10:49:04.697Z,31.01
2022-10-25T10:51:54.700Z,30.99
2022-10-25T10:54:42.098Z,30.96
2022-10-25T10:57:39.639Z,30.88
2022-10-25T11:00:34.030Z,30.80
2022-10-25T11:03:59.218Z,30.78
2022-10-25T11:06:43.005Z,30.61
2022-10-25T11:09:33.706Z,30.61
2022-10-25T11:12:21.183Z,30.56
2022-10-25T11:15:09.731Z,30.37
2022-10-25T11:18:05.422Z,30.24
2022-10-25T11:21:04.692Z,30.24
2022-10-25T11:24:11.032Z,30.17
2022-10-25T11:27:16.739Z,29.98
2022-10-25T11:30:10.983Z,30.03
2022-10-25T11:33:17.701Z,29.90
2022-10-25T11:36:18.738Z,29.79
2022-10-25T11:39:06.751Z,29.85
2022-10-25T11:42:03.646Z,29.76
2022-10-25T11:45:34.619Z,29.67
2022-10-25T11:48:40.629Z,29.56
2022-10-25T11:51:34.982Z,29.44
2022-10-25T11:55:04.632Z,29.50
2022-10-25T11:57:55.070Z,29.45
2022-10-25T12:01:06.872Z,29.02
2022-10-25T12:04:11.051Z,29.17
2022-10-25T12:07:05.610Z,29.04
2022-10-25T12:10:03.055Z,28.77
2022-10-25T12:13:07.707Z,28.60
2022-10-25T12:16:03.717Z,28.49
2022-10-25T12:18:56.606Z,28.30
2022-10-25T12:21:59.208Z,28.23
2022-10-25T12:25:01.600Z,28.08
2022-10-25T12:27:45.010Z,27.96
2022-10-25T12:30:34.045Z,27.95
2022-10-25T12:33:37.180Z,27.84
2022-10-25T12:36:31.698Z,27.72
2022-10-25T12:39:44.134Z,27.68
2022-10-25T12:42:38.748Z,27.65
2022-10-25T12:45:40.676Z,27.61
2022-10-25T12:48:46.836Z,27.51
2022-10-25T12:51:59.735Z,27.49
2022-10-25T12:55:02.608Z,27.46
2022-10-25T12:58:10.722Z,27.37
2022-10-25T13:01:15.184Z,27.31
2022-10-25T13:04:22.027Z,27.35
2022-10-25T13:07:14.213Z,27.30
2022-10-25T13:09:57.685Z,27.14
2022-10-25T13:12:46.902Z,27.13
2022-10-25T13:15:29.700Z,27.15
2022-10-25T13:18:40.668Z,27.08
2022-10-25T13:21:42.031Z,27.04
2022-10-25T13:24:50.707Z,27.05
2022-10-25T13:27:42.682Z,26.94
2022-10-25T13:30:32.260Z,26.81
2022-10-25T13:33:34.707Z,26.82
2022-10-25T13:36:24.672Z,26.78
2022-10-25T13:39:20.714Z,26.67
2022-10-25T13:42:17.948Z,26.76
2022-10-25T13:45:20.703Z,26.67
2022-10-25T13:48:17.685Z,26.66
2022-10-25T13:51:09.119Z,26.60
2022-10-25T13:54:00.718Z,26.53
2022-10-25T13:57:02.663Z,26.56
2022-10-25T13:59:47.742Z,26.53
2022-10-25T14:02:37.684Z,26.44
2022-10-25T14:06:04.719Z,26.45
2022-10-25T14:09:03.697Z,26.33
2022-10-25T14:11:59.703Z,26.30
2022-10-25T14:15:04.697Z,26.32
2022-10-25T14:17:53.694Z,26.32
2022-10-25T14:20:39.002Z,26.27
2022-10-25T14:23:32.732Z,26.23
2022-10-25T14:26:23.107Z,26.18
2022-10-25T14:29:22.668Z,26.24
2022-10-25T14:32:05.175Z,26.16
2022-10-25T14:34:58.583Z,26.19
2022-10-25T14:37:47.632Z,26.10
2022-10-25T14:40:45.120Z,26.07
2022-10-25T14:43:31.660Z,26.04
2022-10-25T14:46:30.786Z,25.97
2022-10-25T14:49:13.138Z,25.96
2022-10-25T14:52:04.763Z,25.87
2022-10-25T14:55:01.978Z,25.91
2022-10-25T14:57:44.724Z,25.88
2022-10-25T15:00:33.638Z,25.96
2022-10-25T15:03:18.047Z,25.80
2022-10-25T15:06:08.611Z,25.82
2022-10-25T15:08:57.521Z,25.71
2022-10-25T15:12:24.589Z,25.74
2022-10-25T15:15:32.682Z,25.65
2022-10-25T15:18:23.188Z,25.66
2022-10-25T15:21:29.674Z,25.62
2022-10-25T15:24:26.689Z,25.61
2022-10-25T15:27:13.010Z,25.55
2022-10-25T15:30:01.710Z,25.51
2022-10-25T15:32:50.686Z,25.50
2022-10-25T15:35:47.703Z,25.52
2022-10-25T15:38:54.447Z,25.48
2022-10-25T15:41:43.675Z,25.46
2022-10-25T15:44:32.696Z,25.35
2022-10-25T15:47:38.688Z,25.47
2022-10-25T15:50:27.619Z,25.38
2022-10-25T15:53:19.690Z,25.35
2022-10-25T15:56:08.688Z,25.29
2022-10-25T15:58:58.641Z,25.26
2022-10-25T16:01:41.209Z,25.21
2022-10-25T16:04:29.817Z,25.19
2022-10-25T16:07:28.173Z,25.14
2022-10-25T16:10:16.597Z,25.09
2022-10-25T16:13:05.062Z,24.99
2022-10-25T16:15:53.696Z,24.92
2022-10-25T16:18:36.000Z,24.90
2022-10-25T16:21:25.670Z,24.99
2022-10-25T16:24:08.091Z,24.98
2022-10-25T16:26:58.655Z,24.98
2022-10-25T16:29:47.682Z,24.95
2022-10-25T16:32:29.854Z,24.94
2022-10-25T16:35:18.648Z,24.88
2022-10-25T16:38:01.675Z,24.89
2022-10-25T16:40:51.660Z,24.83
2022-10-25T16:43:42.137Z,24.85
2022-10-25T16:46:26.678Z,24.72
2022-10-25T16:49:19.651Z,24.77
2022-10-25T16:52:08.688Z,24.75
2022-10-25T16:54:51.001Z,24.77
2022-10-25T16:57:39.790Z,24.70
2022-10-25T17:00:28.963Z,24.74
2022-10-25T17:03:11.731Z,24.72
2022-10-25T17:06:22.059Z,24.71
2022-10-25T17:09:16.753Z,24.65
2022-10-25T17:12:02.287Z,24.65
2022-10-25T17:14:50.772Z,24.61
2022-10-25T17:17:33.114Z,24.60
2022-10-25T17:20:24.698Z,24.57
2022-10-25T17:23:07.083Z,24.52
2022-10-25T17:26:05.580Z,24.43
2022-10-25T17:28:54.589Z,24.45
2022-10-25T17:31:44.043Z,24.38
2022-10-25T17:34:25.626Z,24.39
2022-10-25T17:37:13.956Z,24.36
2022-10-25T17:39:56.737Z,24.24
2022-10-25T17:42:47.079Z,24.31
2022-10-25T17:45:29.688Z,24.32
2022-10-25T17:48:12.597Z,24.30
2022-10-25T17:51:01.609Z,24.30
2022-10-25T17:53:50.683Z,24.27
2022-10-25T17:56:41.681Z,24.19
2022-10-25T17:59:24.060Z,24.17
2022-10-25T18:02:12.765Z,24.22
2022-10-25T18:05:19.030Z,24.12
2022-10-25T18:08:03.677Z,24.14
2022-10-25T18:10:46.295Z,24.17
2022-10-25T18:13:36.655Z,24.10
2022-10-25T18:16:19.546Z,24.10
2022-10-25T18:19:10.681Z,24.10
2022-10-25T18:21:59.653Z,23.95
2022-10-25T18:24:42.099Z,23.95
2022-10-25T18:27:30.601Z,23.96
2022-10-25T18:30:19.567Z,23.94
2022-10-25T18:33:08.699Z,23.86
2022-10-25T18:35:51.114Z,23.79
2022-10-25T18:38:39.694Z,23.78
2022-10-25T18:41:31.670Z,23.70
2022-10-25T18:44:21.118Z,23.77
2022-10-25T18:47:03.706Z,23.69
2022-10-25T18:49:46.640Z,23.65
2022-10-25T18:52:35.681Z,23.83
2022-10-25T18:58:09.661Z,23.73
2022-10-25T19:00:53.088Z,23.72
2022-10-25T19:03:41.582Z,23.70
2022-10-25T19:06:37.606Z,23.71
2022-10-25T19:09:26.048Z,23.71
2022-10-25T19:12:07.585Z,23.62
2022-10-25T19:14:55.947Z,23.56
2022-10-25T19:17:37.668Z,23.55
2022-10-25T19:20:26.604Z,23.56
2022-10-25T19:23:15.681Z,23.59
2022-10-25T19:26:04.664Z,23.47
2022-10-25T19:28:46.952Z,23.44
2022-10-25T19:31:36.567Z,23.45
2022-10-25T19:34:18.932Z,23.42
2022-10-25T19:37:11.710Z,23.40
2022-10-25T19:39:56.802Z,23.45
2022-10-25T19:42:47.658Z,23.44
2022-10-25T19:45:30.194Z,23.41
2022-10-25T19:48:18.650Z,23.31
2022-10-25T19:51:00.956Z,23.32
2022-10-25T19:53:49.634Z,23.33
2022-10-25T19:56:32.219Z,23.26
2022-10-25T19:59:20.577Z,23.30
2022-10-25T20:02:09.909Z,23.30
2022-10-25T20:04:58.060Z,23.35
2022-10-25T20:07:46.848Z,23.38
2022-10-25T20:10:29.038Z,23.29
2022-10-25T20:13:17.547Z,23.15
2022-10-25T20:16:07.656Z,23.17
2022-10-25T20:18:56.574Z,23.22
2022-10-25T20:21:49.552Z,23.17
2022-10-25T20:24:31.952Z,23.10
2022-10-25T20:27:20.561Z,23.01
2022-10-25T20:30:08.946Z,23.19
2022-10-25T20:32:51.653Z,23.13
2022-10-25T20:35:47.454Z,23.06
2022-10-25T20:38:29.667Z,22.93
2022-10-25T20:41:23.747Z,22.93
2022-10-25T20:44:15.576Z,22.92
2022-10-25T20:49:45.985Z,22.83
2022-10-25T20:52:34.783Z,22.83
2022-10-25T20:55:24.652Z,22.84
2022-10-25T20:58:07.170Z,22.87
2022-10-25T21:00:55.628Z,22.80
2022-10-25T21:03:38.193Z,22.93
2022-10-25T21:06:26.649Z,22.67
2022-10-25T21:09:14.928Z,22.78
2022-10-25T21:11:57.016Z,22.60
2022-10-25T21:14:44.974Z,22.79
2022-10-25T21:17:26.673Z,22.83
2022-10-25T21:20:15.922Z,22.82
2022-10-25T21:22:57.724Z,22.61
2022-10-25T21:25:40.530Z,22.65
2022-10-25T21:28:29.725Z,22.72
2022-10-25T21:31:21.934Z,22.78
2022-10-25T21:34:04.780Z,22.58
2022-10-25T21:36:46.785Z,22.58
2022-10-25T21:39:35.705Z,22.76
2022-10-25T21:42:17.815Z,22.74
2022-10-25T21:45:06.658Z,22.73
2022-10-25T21:47:55.670Z,22.64
2022-10-25T21:50:37.926Z,22.63
2022-10-25T21:53:26.682Z,22.46
2022-10-25T21:56:38.967Z,22.45
2022-10-25T21:59:28.532Z,22.40
2022-10-25T22:02:11.129Z,22.46
2022-10-25T22:04:59.585Z,22.42
2022-10-25T22:07:54.508Z,22.35
2022-10-25T22:10:43.714Z,22.35
2022-10-25T22:13:25.981Z,22.30
2022-10-25T22:16:41.953Z,22.31
2022-10-25T22:19:28.917Z,22.16
2022-10-25T22:22:17.543Z,22.41
2022-10-25T22:24:59.952Z,22.42
2022-10-25T22:27:48.653Z,22.46
2022-10-25T22:30:30.925Z,22.46
2022-10-25T22:33:19.553Z,22.41
2022-10-25T22:36:08.543Z,22.38
2022-10-25T22:38:57.638Z,22.28
2022-10-25T22:41:40.990Z,22.35
2022-10-25T22:44:29.689Z,22.34
2022-10-25T22:47:12.009Z,22.35
2022-10-25T22:50:00.558Z,22.37
2022-10-25T22:52:49.667Z,22.27
2022-10-25T22:55:31.870Z,22.34
2022-10-25T22:58:20.690Z,22.26
2022-10-25T23:01:12.006Z,22.30
2022-10-25T23:04:05.713Z,22.18
2022-10-25T23:07:00.496Z,22.27
2022-10-25T23:09:49.698Z,22.15
2022-10-25T23:12:32.380Z,22.22
2022-10-25T23:15:21.632Z,22.16
2022-10-25T23:18:06.939Z,22.25
2022-10-25T23:21:03.562Z,22.15
2022-10-25T23:23:53.673Z,22.15
2022-10-25T23:26:43.890Z,22.23
2022-10-25T23:29:25.689Z,22.17
2022-10-25T23:32:07.867Z,22.07
2022-10-25T23:34:57.207Z,22.14
2022-10-25T23:37:46.049Z,22.21
2022-10-25T23:40:28.673Z,22.18
2022-10-25T23:43:16.922Z,21.93
2022-10-25T23:46:00.652Z,21.90
2022-10-25T23:48:49.650Z,21.99
2022-10-25T23:51:38.556Z,21.99
2022-10-25T23:54:26.944Z,22.04
2022-10-25T23:57:08.686Z,22.01
2022-10-25T23:59:50.825Z,22.03
